Time;durP1;ratioP1;P1;durP2;ratioP2;P2;SDS_P1;SDS_P2;PMS_P1;PMS_P2;Temp;Humidity;BMP_temperature;BMP_pressure;BME280_temperature;BME280_humidity;BME280_pressure;Samples;Min_cycle;Max_cycle;Signal;HPM_P1;HPM_P2
2021/08/26 00:00:19;;;;;;;;;;;;;;;14.32;68.97;96812.34;30001;983;1880;-60
2021/08/26 00:00:59;;;;;;;;;;;;;;;14.31;68.95;96809.94;30001;983;1885;-64
2021/08/26 00:05:50;;;;;;;;;;;;;;;14.30;68.49;96811.06;30001;983;1866;-59
2021/08/26 00:06:21;;;;;;;;;;;;;;;14.29;68.79;96806.72;30001;983;1875;-64
2021/08/26 00:06:55;;;;;;;;;;;;;;;14.30;68.43;96802.88;30001;983;1884;-60
2021/08/26 00:07:26;;;;;;;;;;;;;;;14.31;68.54;96812.66;30001;983;1880;-60
2021/08/26 00:07:57;;;;;;;;;;;;;;;14.29;68.43;96807.53;30001;983;1884;-65
2021/08/26 00:08:28;;;;;;;;;;;;;;;14.29;68.11;96801.25;30001;983;1880;-61
2021/08/26 00:08:59;;;;;;;;;;;;;;;14.28;67.35;96802.38;30001;982;1884;-61
2021/08/26 00:09:29;;;;;;;;;;;;;;;14.28;67.20;96807.84;30001;982;1862;-60
2021/08/26 00:10:06;;;;;;;;;;;;;;;14.28;67.14;96802.38;30001;982;1880;-62
2021/08/26 00:10:38;;;;;;;;;;;;;;;14.29;67.75;96806.72;30001;982;1862;-64
2021/08/26 00:11:09;;;;;;;;;;;;;;;14.29;68.10;96807.53;30001;983;1879;-61
2021/08/26 00:11:44;;;;;;;;;;;;;;;14.28;68.22;96805.91;30001;983;1879;-60
2021/08/26 00:12:15;;;;;;;;;;;;;;;14.27;68.21;96806.22;30001;983;1884;-60
2021/08/26 00:12:46;;;;;;;;;;;;;;;14.26;69.30;96802.69;30001;983;1879;-60
2021/08/26 00:13:17;;;;;;;;;;;;;;;14.24;70.00;96807.66;30001;983;1884;-60
2021/08/26 00:13:50;;;;;;;;;;;;;;;14.22;69.68;96806.38;30001;983;1879;-63
2021/08/26 00:14:23;;;;;;;;;;;;;;;14.21;69.47;96799.31;30001;983;1884;-64
2021/08/26 00:14:55;;;;;;;;;;;;;;;14.22;68.30;96804.44;30001;983;1862;-60
2021/08/26 00:15:28;;;;;;;;;;;;;;;14.20;68.61;96797.72;30001;983;1880;-58
2021/08/26 00:15:59;;;;;;;;;;;;;;;14.20;68.48;96803.19;30001;983;1880;-59
2021/08/26 00:16:30;;;;;;;;;;;;;;;14.19;69.68;96796.94;30001;982;1867;-65
2021/08/26 00:17:02;;;;;;;;;;;;;;;14.16;70.05;96791.31;30001;982;1876;-63
2021/08/26 00:17:33;;;;;;;;;;;;;;;14.14;69.99;96790.81;30001;982;1884;-59
2021/08/26 00:18:04;;;;;;;;;;;;;;;14.13;69.77;96787.28;30001;982;1880;-59
2021/08/26 00:18:35;;;;;;;;;;;;;;;14.13;69.52;96791.94;30001;983;1883;-62
2021/08/26 00:19:06;;;;;;;;;;;;;;;14.11;69.32;96783.25;30001;983;1879;-59
2021/08/26 00:19:38;;;;;;;;;;;;;;;14.11;69.38;96789.53;30001;983;1884;-64
2021/08/26 00:20:09;;;;;;;;;;;;;;;14.11;69.28;96788.72;30001;983;1879;-65
2021/08/26 00:20:41;;;;;;;;;;;;;;;14.08;69.26;96785.50;30001;983;1884;-60
2021/08/26 00:21:13;;;;;;;;;;;;;;;14.07;69.87;96775.72;30001;983;1879;-60
2021/08/26 00:21:44;;;;;;;;;;;;;;;14.06;69.74;96782.28;30001;983;1866;-60
2021/08/26 00:22:17;;;;;;;;;;;;;;;14.07;69.23;96786.63;30001;983;1875;-65
2021/08/26 00:22:48;;;;;;;;;;;;;;;14.06;70.23;96782.28;30001;983;1866;-60
2021/08/26 00:23:23;;;;;;;;;;;;;;;14.04;70.11;96784.53;30001;983;1875;-61
2021/08/26 00:23:54;;;;;;;;;;;;;;;14.02;70.33;96781.31;30001;982;1884;-60
2021/08/26 00:24:24;;;;;;;;;;;;;;;14.01;70.06;96779.69;30001;982;1880;-64
2021/08/26 00:24:58;;;;;;;;;;;;;;;14.00;69.72;96778.09;30001;982;1884;-64
2021/08/26 00:25:29;;;;;;;;;;;;;;;13.99;69.87;96784.66;30001;982;1862;-60
2021/08/26 00:26:01;;;;;;;;;;;;;;;13.98;70.21;96779.53;30001;982;1880;-65
2021/08/26 00:26:32;;;;;;;;;;;;;;;13.97;70.20;96780.66;30001;983;1879;-60
2021/08/26 00:27:04;;;;;;;;;;;;;;;13.97;69.87;96777.91;30001;983;1884;-59
2021/08/26 00:27:35;;;;;;;;;;;;;;;13.97;69.94;96777.91;30001;983;1879;-59
2021/08/26 00:28:06;;;;;;;;;;;;;;;13.96;69.63;96770.84;30001;983;1866;-62
2021/08/26 00:28:37;;;;;;;;;;;;;;;13.97;69.29;96772.47;30001;983;1875;-65
2021/08/26 00:29:08;;;;;;;;;;;;;;;13.97;69.33;96776.00;30001;983;1884;-63
2021/08/26 00:29:39;;;;;;;;;;;;;;;13.98;69.21;96771.34;30001;983;1880;-62
2021/08/26 00:30:10;;;;;;;;;;;;;;;13.99;69.13;96772.94;30001;983;1884;-66
2021/08/26 00:30:41;;;;;;;;;;;;;;;13.99;70.00;96770.22;30001;983;1880;-64
2021/08/26 00:31:12;;;;;;;;;;;;;;;13.99;69.67;96776.47;30001;982;1884;-64
2021/08/26 00:31:43;;;;;;;;;;;;;;;13.98;69.11;96769.41;30001;982;1862;-64
2021/08/26 00:32:14;;;;;;;;;;;;;;;13.97;69.29;96778.72;30001;982;1880;-63
2021/08/26 00:32:44;;;;;;;;;;;;;;;13.98;68.80;96774.06;30001;982;1880;-62
2021/08/26 00:33:17;;;;;;;;;;;;;;;13.99;68.69;96771.03;30001;982;1885;-57
2021/08/26 00:33:47;;;;;;;;;;;;;;;13.99;68.30;96781.94;30001;983;1879;-62
2021/08/26 00:34:19;;;;;;;;;;;;;;;14.01;68.40;96771.53;30001;983;1883;-64
2021/08/26 00:34:54;;;;;;;;;;;;;;;14.01;68.19;96778.91;30001;983;1862;-59
2021/08/26 00:35:25;;;;;;;;;;;;;;;14.00;68.18;96772.62;30001;983;1879;-61
2021/08/26 00:35:57;;;;;;;;;;;;;;;14.00;68.31;96772.62;30001;983;1879;-61
2021/08/26 00:36:29;;;;;;;;;;;;;;;14.00;68.36;96772.62;30001;983;1884;-58
2021/08/26 00:37:00;;;;;;;;;;;;;;;14.00;68.36;96772.62;30001;983;1862;-61
2021/08/26 00:37:31;;;;;;;;;;;;;;;14.01;67.94;96768.00;30001;983;1862;-59
2021/08/26 00:38:02;;;;;;;;;;;;;;;14.04;68.06;96778.28;30001;983;1879;-61
2021/08/26 00:38:34;;;;;;;;;;;;;;;14.03;68.24;96773.94;30001;983;1884;-64
2021/08/26 00:39:04;;;;;;;;;;;;;;;14.04;68.52;96767.34;30001;982;1880;-65
2021/08/26 00:39:35;;;;;;;;;;;;;;;14.02;68.43;96772.31;30001;982;1884;-59
2021/08/26 00:40:06;;;;;;;;;;;;;;;14.02;68.81;96775.06;30001;982;1880;-59
2021/08/26 00:40:37;;;;;;;;;;;;;;;14.00;68.92;96778.09;30001;982;1884;-61
2021/08/26 00:41:08;;;;;;;;;;;;;;;13.99;68.64;96773.75;30001;986;1871;-59
2021/08/26 00:41:40;;;;;;;;;;;;;;;13.99;69.17;96783.87;30001;983;1883;-60
2021/08/26 00:42:11;;;;;;;;;;;;;;;13.98;69.04;96777.59;30001;983;1862;-59
2021/08/26 00:42:42;;;;;;;;;;;;;;;13.97;69.07;96777.91;30001;983;1862;-60
2021/08/26 00:43:13;;;;;;;;;;;;;;;13.96;69.07;96782.56;30001;983;1879;-65
2021/08/26 00:43:44;;;;;;;;;;;;;;;13.94;70.01;96784.81;30001;983;1884;-62
2021/08/26 00:44:17;;;;;;;;;;;;;;;13.92;69.78;96776.16;30001;983;1879;-64
2021/08/26 00:44:48;;;;;;;;;;;;;;;13.92;69.76;96781.59;30001;983;1884;-59
2021/08/26 00:45:18;;;;;;;;;;;;;;;13.90;70.10;96772.94;30001;983;1880;-61
2021/08/26 00:45:52;;;;;;;;;;;;;;;13.88;69.91;96775.16;30001;982;1867;-58
2021/08/26 00:46:25;;;;;;;;;;;;;;;13.85;70.35;96775.81;30001;982;1875;-64
2021/08/26 00:46:56;;;;;;;;;;;;;;;13.83;70.16;96778.06;30001;982;1802;-59
2021/08/26 00:47:27;;;;;;;;;;;;;;;13.81;70.00;96780.31;30001;982;1880;-64
2021/08/26 00:47:58;;;;;;;;;;;;;;;13.81;70.09;96774.03;30001;982;1884;-60
2021/08/26 00:48:29;;;;;;;;;;;;;;;13.79;70.29;96779.81;30001;982;1880;-59
2021/08/26 00:49:00;;;;;;;;;;;;;;;13.78;70.28;96775.47;30001;983;1884;-58
2021/08/26 00:49:31;;;;;;;;;;;;;;;13.78;70.27;96780.12;30001;983;1862;-60
2021/08/26 00:50:02;;;;;;;;;;;;;;;13.76;70.14;96777.72;30001;983;1879;-60
2021/08/26 00:50:33;;;;;;;;;;;;;;;13.75;69.73;96779.63;30001;983;1879;-61
2021/08/26 00:51:04;;;;;;;;;;;;;;;13.75;70.06;96781.56;30001;983;1884;-63
2021/08/26 00:51:35;;;;;;;;;;;;;;;13.73;70.30;96773.69;30001;983;1880;-61
2021/08/26 00:52:11;;;;;;;;;;;;;;;13.74;70.42;96774.50;30001;983;1884;-59
2021/08/26 00:52:46;;;;;;;;;;;;;;;13.73;70.41;96783.78;30001;983;1880;-58
2021/08/26 00:53:17;;;;;;;;;;;;;;;13.72;70.22;96776.72;30001;982;1867;-60
2021/08/26 00:53:48;;;;;;;;;;;;;;;13.71;69.79;96775.13;30001;982;1876;-59
2021/08/26 00:54:19;;;;;;;;;;;;;;;13.71;70.04;96775.13;30001;982;1884;-65
2021/08/26 00:54:53;;;;;;;;;;;;;;;13.74;70.06;96779.94;30001;982;1858;-64
2021/08/26 00:55:24;;;;;;;;;;;;;;;13.75;69.76;96773.38;30001;982;1876;-60
2021/08/26 00:55:55;;;;;;;;;;;;;;;13.75;70.50;96778.84;30001;982;1876;-63
2021/08/26 00:56:26;;;;;;;;;;;;;;;13.73;70.11;96779.16;30001;983;1879;-60
2021/08/26 00:56:57;;;;;;;;;;;;;;;13.72;69.50;96774.00;30001;983;1857;-63
2021/08/26 00:57:28;;;;;;;;;;;;;;;13.72;69.86;96779.47;30001;983;1875;-60
2021/08/26 00:58:01;;;;;;;;;;;;;;;13.70;70.37;96774.31;30001;983;1875;-58
2021/08/26 00:58:32;;;;;;;;;;;;;;;13.68;70.99;96775.75;30001;983;1879;-61
2021/08/26 00:59:04;;;;;;;;;;;;;;;13.64;70.68;96774.78;30001;983;1876;-59
2021/08/26 00:59:35;;;;;;;;;;;;;;;13.62;70.46;96769.63;30001;983;1880;-61
2021/08/26 01:00:07;;;;;;;;;;;;;;;13.64;69.99;96775.56;30001;983;1875;-59
2021/08/26 01:00:40;;;;;;;;;;;;;;;13.65;69.29;96779.09;30001;982;1862;-65
2021/08/26 01:01:12;;;;;;;;;;;;;;;13.63;69.31;96771.25;30001;982;1871;-59
2021/08/26 01:01:47;;;;;;;;;;;;;;;13.62;69.63;96777.81;30001;982;1880;-65
2021/08/26 01:02:27;;;;;;;;;;;;;;;13.60;69.83;96769.16;30001;982;1876;-59
2021/08/26 01:03:25;;;;;;;;;;;;;;;13.59;70.08;96769.44;30001;982;1862;-59
2021/08/26 01:03:59;;;;;;;;;;;;;;;13.55;69.56;96765.75;30001;983;1866;-61
2021/08/26 01:04:36;;;;;;;;;;;;;;;13.54;69.84;96769.59;30001;983;1879;-63
2021/08/26 01:05:42;;;;;;;;;;;;;;;13.52;70.11;96761.72;30001;983;1875;-64
2021/08/26 01:06:16;;;;;;;;;;;;;;;13.52;69.98;96763.66;30001;983;1857;-60
2021/08/26 01:07:05;;;;;;;;;;;;;;;13.51;70.52;96762.06;30001;983;1871;-60
2021/08/26 01:07:58;;;;;;;;;;;;;;;13.49;70.25;96758.84;30001;983;1871;-65
2021/08/26 01:08:45;;;;;;;;;;;;;;;13.45;70.76;96755.16;30001;982;1875;-60
2021/08/26 01:09:19;;;;;;;;;;;;;;;13.44;70.70;96753.53;30001;982;1880;-60
2021/08/26 01:09:51;;;;;;;;;;;;;;;13.43;70.78;96757.38;30001;982;1876;-59
2021/08/26 01:10:22;;;;;;;;;;;;;;;13.40;70.79;96759.63;30001;982;1880;-59
2021/08/26 01:10:57;;;;;;;;;;;;;;;13.40;70.70;96756.09;30001;982;1876;-60
2021/08/26 01:11:29;;;;;;;;;;;;;;;13.39;71.01;96755.28;30001;983;1862;-63
2021/08/26 01:12:00;;;;;;;;;;;;;;;13.37;70.98;96754.78;30001;983;1871;-67
2021/08/26 01:12:33;;;;;;;;;;;;;;;13.35;71.25;96750.78;30001;983;1862;-59
2021/08/26 01:13:04;;;;;;;;;;;;;;;13.31;71.38;96750.59;30001;983;1871;-60
2021/08/26 01:13:41;;;;;;;;;;;;;;;13.31;71.69;96744.34;30001;983;1879;-59
2021/08/26 01:14:12;;;;;;;;;;;;;;;13.29;71.31;96747.37;30001;983;1875;-60
2021/08/26 01:14:43;;;;;;;;;;;;;;;13.28;71.24;96751.22;30001;983;1880;-59
2021/08/26 01:15:14;;;;;;;;;;;;;;;13.29;71.29;96746.56;30001;983;1875;-60
2021/08/26 01:16:21;;;;;;;;;;;;;;;13.27;71.56;96738.72;30001;982;1880;-61
2021/08/26 01:16:53;;;;;;;;;;;;;;;13.29;71.45;96747.37;30001;982;1871;-65
2021/08/26 01:17:24;;;;;;;;;;;;;;;13.28;71.54;96751.22;30001;982;1862;-60
2021/08/26 01:17:55;;;;;;;;;;;;;;;13.29;71.72;96752.81;30001;982;1871;-60
2021/08/26 01:18:27;;;;;;;;;;;;;;;13.28;71.66;96753.94;30001;983;1862;-59
2021/08/26 01:18:58;;;;;;;;;;;;;;;13.28;72.30;96748.47;30001;983;1853;-65
2021/08/26 01:19:29;;;;;;;;;;;;;;;13.26;72.24;96742.53;30001;983;1879;-60
2021/08/26 01:20:01;;;;;;;;;;;;;;;13.26;71.85;96748.00;30001;983;1875;-59
2021/08/26 01:20:32;;;;;;;;;;;;;;;13.26;72.51;96742.53;30001;983;1879;-64
2021/08/26 01:21:03;;;;;;;;;;;;;;;13.26;71.88;96747.19;30001;983;1875;-60
2021/08/26 01:21:34;;;;;;;;;;;;;;;13.25;72.12;96743.66;30001;983;1880;-64
2021/08/26 01:22:06;;;;;;;;;;;;;;;13.25;72.00;96746.37;30001;983;1875;-59
2021/08/26 01:22:38;;;;;;;;;;;;;;;13.26;71.82;96745.28;30001;983;1880;-61
2021/08/26 01:23:11;;;;;;;;;;;;;;;13.26;71.78;96753.44;30001;983;1858;-59
2021/08/26 01:23:47;;;;;;;;;;;;;;;13.27;71.91;96752.31;30001;982;1875;-60
2021/08/26 01:24:18;;;;;;;;;;;;;;;13.28;72.22;96744.97;30001;982;1876;-63
2021/08/26 01:24:57;;;;;;;;;;;;;;;13.28;71.91;96745.75;30001;982;1880;-59
2021/08/26 01:25:28;;;;;;;;;;;;;;;13.29;71.70;96747.37;30001;982;1876;-62
2021/08/26 01:26:10;;;;;;;;;;;;;;;13.32;71.66;96746.75;30001;983;1862;-59
2021/08/26 01:26:42;;;;;;;;;;;;;;;13.32;71.67;96740.50;30001;983;1871;-60
2021/08/26 01:27:13;;;;;;;;;;;;;;;13.32;71.94;96741.28;30001;983;1879;-65
2021/08/26 01:28:03;;;;;;;;;;;;;;;13.30;72.62;96746.25;30001;983;1875;-58
2021/08/26 01:28:35;;;;;;;;;;;;;;;13.31;72.02;96745.13;30001;983;1879;-59
2021/08/26 01:29:06;;;;;;;;;;;;;;;13.31;71.86;96745.13;30001;983;1875;-61
2021/08/26 01:29:38;;;;;;;;;;;;;;;13.32;72.09;96746.75;30001;983;1862;-65
2021/08/26 01:30:11;;;;;;;;;;;;;;;13.31;72.12;96747.88;30001;983;1871;-63
2021/08/26 01:30:43;;;;;;;;;;;;;;;13.30;71.58;96746.25;30001;983;1880;-59
2021/08/26 01:31:13;;;;;;;;;;;;;;;13.31;71.68;96745.13;30001;982;1875;-64
2021/08/26 01:31:45;;;;;;;;;;;;;;;13.30;71.58;96740.81;30001;982;1880;-63
2021/08/26 01:32:20;;;;;;;;;;;;;;;13.31;71.63;96744.34;30001;982;1876;-59
2021/08/26 01:32:53;;;;;;;;;;;;;;;13.31;70.87;96745.13;30001;982;1863;-60
2021/08/26 01:33:24;;;;;;;;;;;;;;;13.32;70.75;96749.47;30001;983;1871;-63
2021/08/26 01:33:56;;;;;;;;;;;;;;;13.32;71.01;96744.03;30001;983;1879;-64
2021/08/26 01:34:27;;;;;;;;;;;;;;;13.31;70.80;96739.69;30001;983;1875;-60
2021/08/26 01:34:59;;;;;;;;;;;;;;;13.30;70.83;96743.53;30001;983;1879;-60
2021/08/26 01:35:30;;;;;;;;;;;;;;;13.31;71.55;96742.41;30001;983;1857;-64
2021/08/26 01:36:02;;;;;;;;;;;;;;;13.28;71.49;96744.97;30001;983;1875;-59
2021/08/26 01:36:34;;;;;;;;;;;;;;;13.27;71.57;96744.16;30001;983;1875;-61
2021/08/26 01:37:05;;;;;;;;;;;;;;;13.29;71.27;96741.91;30001;983;1862;-60
2021/08/26 01:37:37;;;;;;;;;;;;;;;13.30;71.77;96743.53;30001;982;1871;-61
2021/08/26 01:38:09;;;;;;;;;;;;;;;13.30;72.18;96743.53;30001;982;1880;-63
2021/08/26 01:38:44;;;;;;;;;;;;;;;13.31;72.70;96744.34;30001;982;1876;-59
2021/08/26 01:39:15;;;;;;;;;;;;;;;13.29;73.22;96741.91;30001;982;1880;-60
2021/08/26 01:39:47;;;;;;;;;;;;;;;13.28;72.90;96740.31;30001;982;1876;-60
2021/08/26 01:40:29;;;;;;;;;;;;;;;13.25;72.54;96740.94;30001;982;1880;-65
2021/08/26 01:41:00;;;;;;;;;;;;;;;13.26;71.95;96734.38;30001;983;1875;-65
2021/08/26 01:41:38;;;;;;;;;;;;;;;13.24;71.52;96728.44;30001;983;1879;-60
2021/08/26 01:42:09;;;;;;;;;;;;;;;13.25;71.89;96730.03;30001;983;1857;-65
2021/08/26 01:42:41;;;;;;;;;;;;;;;13.25;71.93;96738.22;30001;983;1875;-59
2021/08/26 01:43:13;;;;;;;;;;;;;;;13.25;71.78;96738.22;30001;983;1875;-65
2021/08/26 01:43:44;;;;;;;;;;;;;;;13.26;71.30;96739.81;30001;983;1880;-63
2021/08/26 01:44:19;;;;;;;;;;;;;;;13.25;71.33;96735.50;30001;983;1875;-60
2021/08/26 01:44:50;;;;;;;;;;;;;;;13.25;71.51;96730.03;30001;983;1862;-60
2021/08/26 01:45:21;;;;;;;;;;;;;;;13.26;71.57;96741.75;30001;984;1871;-59
2021/08/26 01:45:52;;;;;;;;;;;;;;;13.28;71.00;96745.75;30001;982;1862;-64
2021/08/26 01:46:23;;;;;;;;;;;;;;;13.27;71.16;96733.25;30001;982;1854;-59
2021/08/26 01:46:57;;;;;;;;;;;;;;;13.29;70.97;96736.47;30001;982;1880;-63
2021/08/26 01:47:28;;;;;;;;;;;;;;;13.30;70.65;96732.63;30001;982;1876;-59
2021/08/26 01:47:59;;;;;;;;;;;;;;;13.28;71.12;96740.31;30001;982;1880;-64
2021/08/26 01:48:29;;;;;;;;;;;;;;;13.26;71.24;96731.66;30001;983;1875;-66
2021/08/26 01:49:00;;;;;;;;;;;;;;;13.25;71.92;96734.69;30001;983;1879;-64
2021/08/26 01:49:32;;;;;;;;;;;;;;;13.26;71.48;96734.38;30001;983;1858;-63
2021/08/26 01:50:04;;;;;;;;;;;;;;;13.28;70.98;96743.03;30001;983;1875;-63
2021/08/26 01:50:38;;;;;;;;;;;;;;;13.28;71.23;96740.31;30001;983;1875;-60
2021/08/26 01:51:09;;;;;;;;;;;;;;;13.27;71.27;96738.72;30001;987;1880;-59
2021/08/26 01:51:40;;;;;;;;;;;;;;;13.27;71.27;96730.53;30001;983;1875;-65
2021/08/26 01:52:15;;;;;;;;;;;;;;;13.26;70.93;96731.66;30001;975;1898;-64
2021/08/26 01:52:46;;;;;;;;;;;;;;;13.27;71.33;96737.91;30001;982;1858;-59
2021/08/26 01:53:18;;;;;;;;;;;;;;;13.27;71.19;96727.81;30001;982;1875;-60
2021/08/26 01:53:50;;;;;;;;;;;;;;;13.30;71.05;96738.09;30001;982;1876;-66
2021/08/26 01:54:23;;;;;;;;;;;;;;;13.30;70.95;96738.09;30001;982;1880;-65
2021/08/26 01:54:56;;;;;;;;;;;;;;;13.30;71.45;96735.34;30001;982;1876;-64
2021/08/26 01:55:27;;;;;;;;;;;;;;;13.29;70.88;96731.03;30001;983;1879;-65
2021/08/26 01:55:58;;;;;;;;;;;;;;;13.29;71.10;96736.47;30001;983;1857;-64
2021/08/26 01:56:28;;;;;;;;;;;;;;;13.29;71.14;96736.47;30001;983;1875;-60
2021/08/26 01:56:59;;;;;;;;;;;;;;;13.28;70.92;96732.13;30001;983;1875;-60
2021/08/26 01:57:33;;;;;;;;;;;;;;;13.29;71.20;96743.84;30001;983;1879;-61
2021/08/26 01:58:04;;;;;;;;;;;;;;;13.31;70.86;96733.44;30001;983;1875;-64
2021/08/26 01:58:37;;;;;;;;;;;;;;;13.31;70.75;96736.97;30001;983;1880;-63
2021/08/26 01:59:08;;;;;;;;;;;;;;;13.31;71.06;96736.16;30001;983;1858;-59
2021/08/26 01:59:39;;;;;;;;;;;;;;;13.30;71.04;96735.34;30001;983;1875;-65
2021/08/26 02:00:11;;;;;;;;;;;;;;;13.29;71.01;96738.37;30001;982;1875;-61
2021/08/26 02:00:42;;;;;;;;;;;;;;;13.27;71.33;96735.97;30001;982;1880;-65
2021/08/26 02:01:13;;;;;;;;;;;;;;;13.25;71.01;96740.94;30001;982;1876;-59
2021/08/26 02:01:44;;;;;;;;;;;;;;;13.25;71.25;96730.03;30001;982;1862;-65
2021/08/26 02:02:15;;;;;;;;;;;;;;;13.26;71.03;96726.19;30001;982;1871;-63
2021/08/26 02:02:46;;;;;;;;;;;;;;;13.27;70.92;96738.72;30001;983;1879;-58
2021/08/26 02:03:17;;;;;;;;;;;;;;;13.27;70.82;96732.44;30001;983;1875;-66
2021/08/26 02:03:48;;;;;;;;;;;;;;;13.29;71.12;96731.03;30001;983;1879;-58
2021/08/26 02:04:19;;;;;;;;;;;;;;;13.29;71.38;96736.47;30001;983;1857;-64
2021/08/26 02:04:50;;;;;;;;;;;;;;;13.29;71.23;96730.22;30001;983;1875;-63
2021/08/26 02:05:21;;;;;;;;;;;;;;;13.29;71.14;96731.03;30002;796;1014;-59
2021/08/26 02:05:52;;;;;;;;;;;;;;;13.30;71.33;96738.09;30001;983;1879;-65
2021/08/26 02:06:23;;;;;;;;;;;;;;;13.30;71.31;96737.28;30001;983;1875;-66
2021/08/26 02:06:54;;;;;;;;;;;;;;;13.28;72.03;96732.13;30001;983;1880;-59
2021/08/26 02:07:25;;;;;;;;;;;;;;;13.25;71.54;96740.94;30001;983;1875;-63
2021/08/26 02:07:56;;;;;;;;;;;;;;;13.25;71.76;96732.75;30001;982;1880;-65
2021/08/26 02:08:26;;;;;;;;;;;;;;;13.25;71.30;96735.50;30001;982;1875;-59
2021/08/26 02:08:57;;;;;;;;;;;;;;;13.24;71.39;96736.59;30001;982;1862;-59
2021/08/26 02:09:28;;;;;;;;;;;;;;;13.24;71.40;96744.78;30001;982;1871;-59
2021/08/26 02:09:59;;;;;;;;;;;;;;;13.24;71.68;96750.22;30001;982;1880;-59
2021/08/26 02:10:30;;;;;;;;;;;;;;;13.22;71.59;96741.56;30001;984;1884;-65
2021/08/26 02:11:00;;;;;;;;;;;;;;;13.21;71.33;96745.41;30001;983;1879;-66
2021/08/26 02:11:31;;;;;;;;;;;;;;;13.19;71.38;96739.47;30001;983;1875;-58
2021/08/26 02:12:02;;;;;;;;;;;;;;;13.17;71.71;96744.41;30001;960;1809;-65
2021/08/26 02:12:33;;;;;;;;;;;;;;;13.14;71.40;96734.13;30001;983;1875;-65
2021/08/26 02:13:04;;;;;;;;;;;;;;;13.15;71.86;96746.66;30001;983;1880;-58
2021/08/26 02:13:35;;;;;;;;;;;;;;;13.15;71.42;96743.91;30001;983;1875;-66
2021/08/26 02:14:06;;;;;;;;;;;;;;;13.14;71.42;96742.31;30001;983;1862;-63
2021/08/26 02:14:37;;;;;;;;;;;;;;;13.16;71.36;96736.59;30001;983;1871;-64
2021/08/26 02:15:09;;;;;;;;;;;;;;;13.14;71.55;96738.78;30001;983;1880;-59
2021/08/26 02:15:40;;;;;;;;;;;;;;;13.12;72.23;96730.94;30001;982;1875;-59
2021/08/26 02:16:11;;;;;;;;;;;;;;;13.10;72.29;96746.78;30001;982;1862;-64
2021/08/26 02:16:42;;;;;;;;;;;;;;;13.09;71.70;96739.72;30001;982;1871;-60
2021/08/26 02:17:13;;;;;;;;;;;;;;;13.10;71.82;96744.06;30001;982;1880;-65
2021/08/26 02:17:44;;;;;;;;;;;;;;;13.09;72.07;96737.78;30001;983;1857;-64
2021/08/26 02:18:15;;;;;;;;;;;;;;;13.08;72.32;96735.38;30001;983;1875;-59
2021/08/26 02:18:46;;;;;;;;;;;;;;;13.07;72.06;96740.03;30001;983;1875;-61
2021/08/26 02:19:17;;;;;;;;;;;;;;;13.07;72.01;96733.78;30001;983;1879;-63
2021/08/26 02:19:48;;;;;;;;;;;;;;;13.07;71.79;96740.03;30001;983;1875;-62
2021/08/26 02:20:18;;;;;;;;;;;;;;;13.11;72.00;96731.22;30001;983;1879;-64
2021/08/26 02:20:49;;;;;;;;;;;;;;;13.12;71.25;96730.94;30001;983;1875;-58
2021/08/26 02:21:20;;;;;;;;;;;;;;;13.13;71.64;96737.97;30001;983;1880;-65
2021/08/26 02:21:54;;;;;;;;;;;;;;;13.10;71.95;96744.06;30001;983;1875;-63
2021/08/26 02:22:25;;;;;;;;;;;;;;;13.07;71.93;96731.06;30001;982;1880;-64
2021/08/26 02:22:56;;;;;;;;;;;;;;;13.06;71.71;96735.69;30001;982;1858;-63
2021/08/26 02:23:27;;;;;;;;;;;;;;;13.03;71.67;96728.16;30001;982;1875;-59
2021/08/26 02:23:58;;;;;;;;;;;;;;;13.03;71.70;96735.50;30001;982;1858;-65
2021/08/26 02:24:29;;;;;;;;;;;;;;;13.03;71.92;96730.06;30001;982;1875;-64
2021/08/26 02:25:01;;;;;;;;;;;;;;;13.00;71.96;96728.78;30001;982;1875;-60
2021/08/26 02:25:32;;;;;;;;;;;;;;;13.01;71.59;96732.28;30001;983;1879;-66
2021/08/26 02:26:02;;;;;;;;;;;;;;;13.01;71.82;96726.84;30001;983;1874;-59
2021/08/26 02:26:33;;;;;;;;;;;;;;;13.00;72.06;96727.97;30001;983;1879;-63
2021/08/26 02:27:04;;;;;;;;;;;;;;;12.97;71.71;96723.94;30001;983;1875;-59
2021/08/26 02:27:35;;;;;;;;;;;;;;;12.96;72.06;96721.53;30001;983;1862;-60
2021/08/26 02:28:06;;;;;;;;;;;;;;;12.93;72.25;96727.59;30001;983;1871;-62
2021/08/26 02:28:38;;;;;;;;;;;;;;;12.91;71.71;96725.19;30001;983;1862;-62
2021/08/26 02:29:08;;;;;;;;;;;;;;;12.91;71.83;96718.94;30001;983;1871;-60
2021/08/26 02:29:39;;;;;;;;;;;;;;;12.93;71.96;96716.69;30001;982;1879;-58
2021/08/26 02:30:10;;;;;;;;;;;;;;;12.94;71.70;96718.31;30001;982;1875;-65
2021/08/26 02:30:44;;;;;;;;;;;;;;;12.94;72.53;96719.12;30001;982;1880;-63
2021/08/26 02:31:15;;;;;;;;;;;;;;;12.93;73.72;96716.69;30001;982;1876;-64
2021/08/26 02:31:46;;;;;;;;;;;;;;;12.89;73.40;96719.25;30001;982;1880;-59
2021/08/26 02:32:17;;;;;;;;;;;;;;;12.87;72.80;96716.03;30001;982;1875;-64
2021/08/26 02:32:48;;;;;;;;;;;;;;;12.86;72.74;96711.69;30001;983;1861;-63
2021/08/26 02:33:19;;;;;;;;;;;;;;;12.86;72.81;96711.69;30001;983;1853;-65
2021/08/26 02:33:50;;;;;;;;;;;;;;;12.87;72.49;96712.50;30001;983;1879;-60
2021/08/26 02:34:21;;;;;;;;;;;;;;;12.86;72.64;96716.34;30001;983;1875;-64
2021/08/26 02:34:52;;;;;;;;;;;;;;;12.86;72.93;96717.13;30001;983;1879;-63
2021/08/26 02:35:22;;;;;;;;;;;;;;;12.87;72.58;96712.50;30001;983;1875;-64
2021/08/26 02:35:53;;;;;;;;;;;;;;;12.87;72.74;96715.22;30001;983;1879;-65
2021/08/26 02:36:24;;;;;;;;;;;;;;;12.87;72.23;96709.78;30001;983;1875;-64
2021/08/26 02:36:58;;;;;;;;;;;;;;;12.86;72.47;96710.88;30001;983;1879;-65
2021/08/26 02:37:29;;;;;;;;;;;;;;;12.84;73.93;96705.75;30001;982;1858;-60
2021/08/26 02:38:01;;;;;;;;;;;;;;;12.82;73.95;96709.94;30001;982;1875;-65
2021/08/26 02:38:32;;;;;;;;;;;;;;;12.83;72.75;96701.44;30001;982;1875;-60
2021/08/26 02:39:03;;;;;;;;;;;;;;;12.85;72.60;96710.09;30001;982;1880;-65
2021/08/26 02:39:35;;;;;;;;;;;;;;;12.85;72.79;96712.00;30001;982;1876;-63
2021/08/26 02:40:06;;;;;;;;;;;;;;;12.83;72.94;96711.50;30001;982;1880;-58
2021/08/26 02:40:37;;;;;;;;;;;;;;;12.83;72.80;96706.06;30001;983;1875;-61
2021/08/26 02:41:08;;;;;;;;;;;;;;;12.82;72.86;96704.50;30001;983;1879;-63
2021/08/26 02:41:39;;;;;;;;;;;;;;;12.82;73.04;96707.22;30001;983;1875;-65
2021/08/26 02:42:14;;;;;;;;;;;;;;;12.80;73.12;96704.81;30001;983;1879;-65
2021/08/26 02:42:45;;;;;;;;;;;;;;;12.81;73.10;96708.31;30001;983;1857;-64
2021/08/26 02:43:16;;;;;;;;;;;;;;;12.79;72.93;96705.09;30001;983;1875;-60
2021/08/26 02:43:47;;;;;;;;;;;;;;;12.78;73.83;96700.78;30001;983;1875;-63
2021/08/26 02:44:18;;;;;;;;;;;;;;;12.75;74.28;96694.84;30001;983;1879;-59
2021/08/26 02:44:48;;;;;;;;;;;;;;;12.74;73.67;96698.69;30001;982;1875;-65
2021/08/26 02:45:19;;;;;;;;;;;;;;;12.73;73.77;96702.50;30001;982;1880;-59
2021/08/26 02:45:50;;;;;;;;;;;;;;;12.72;73.95;96700.91;30001;982;1858;-64
2021/08/26 02:46:23;;;;;;;;;;;;;;;12.72;74.02;96694.66;30001;982;1875;-61
2021/08/26 02:46:54;;;;;;;;;;;;;;;12.73;73.72;96701.72;30001;982;1858;-61
2021/08/26 02:47:25;;;;;;;;;;;;;;;12.73;73.57;96699.78;30001;983;1875;-65
2021/08/26 02:47:56;;;;;;;;;;;;;;;12.74;73.04;96693.22;30001;983;1875;-64
2021/08/26 02:48:27;;;;;;;;;;;;;;;12.72;73.79;96695.47;30001;983;1879;-59
2021/08/26 02:48:57;;;;;;;;;;;;;;;12.71;73.30;96698.50;30001;983;1875;-64
2021/08/26 02:49:28;;;;;;;;;;;;;;;12.69;74.33;96690.63;30001;983;1879;-64
2021/08/26 02:49:59;;;;;;;;;;;;;;;12.69;74.00;96696.06;30001;983;1857;-63
2021/08/26 02:50:30;;;;;;;;;;;;;;;12.70;73.87;96692.25;30001;983;1875;-61
2021/08/26 02:51:01;;;;;;;;;;;;;;;12.73;73.24;96691.63;30001;983;1875;-63
2021/08/26 02:51:32;;;;;;;;;;;;;;;12.74;73.42;96690.50;30001;983;1879;-60
2021/08/26 02:52:06;;;;;;;;;;;;;;;12.75;73.78;96694.84;30001;983;1875;-64
2021/08/26 02:52:38;;;;;;;;;;;;;;;12.74;74.21;96689.69;30001;982;1880;-65
2021/08/26 02:53:08;;;;;;;;;;;;;;;12.72;73.68;96690.00;30001;982;1875;-63
2021/08/26 02:53:39;;;;;;;;;;;;;;;12.72;73.83;96684.56;30001;982;1862;-63
2021/08/26 02:54:11;;;;;;;;;;;;;;;12.70;73.69;96681.34;30001;982;1871;-64
2021/08/26 02:54:41;;;;;;;;;;;;;;;12.70;73.74;96684.06;30001;983;1879;-58
2021/08/26 02:55:12;;;;;;;;;;;;;;;12.71;73.41;96687.59;30001;983;1875;-59
2021/08/26 02:55:43;;;;;;;;;;;;;;;12.72;73.60;96686.50;30001;983;1879;-63
2021/08/26 02:56:14;;;;;;;;;;;;;;;12.70;73.63;96681.34;30001;983;1857;-65
2021/08/26 02:56:45;;;;;;;;;;;;;;;12.70;73.44;96681.34;30001;983;1875;-59